Time;durP1;ratioP1;P1;durP2;ratioP2;P2;SDS_P1;SDS_P2;PMS_P1;PMS_P2;Temp;Humidity;BMP_temperature;BMP_pressure;BME280_temperature;BME280_humidity;BME280_pressure;Samples;Min_cycle;Max_cycle;Signal;HPM_P1;HPM_P2
2022/11/17 05:00:17;;;;;;;3.70;3.30;;;9.90;99.90;;;;;;6129784;23;20415;31
2022/11/17 05:02:44;;;;;;;5.60;3.70;;;9.90;99.90;;;;;;4926013;29;20469;-72
2022/11/17 05:05:11;;;;;;;5.33;3.70;;;9.90;99.90;;;;;;4928005;29;20458;-72
2022/11/17 05:07:38;;;;;;;8.07;4.00;;;9.90;99.90;;;;;;4927854;29;20537;-72
2022/11/17 05:10:06;;;;;;;5.37;3.37;;;10.00;99.90;;;;;;4927836;29;20454;-73
2022/11/17 05:17:03;;;;;;;4.60;3.50;;;9.90;99.90;;;;;;4928148;29;20425;-72
2022/11/17 05:18:04;;;;;;;4.97;3.83;;;10.00;99.90;;;;;;4928050;29;20547;-73
2022/11/17 05:20:32;;;;;;;5.30;4.00;;;10.00;99.90;;;;;;4926476;29;21304;-72
2022/11/17 05:25:43;;;;;;;5.27;3.80;;;10.10;99.90;;;;;;4928260;29;20932;-72
2022/11/17 05:28:10;;;;;;;4.30;3.87;;;10.10;99.90;;;;;;4928604;29;20822;-72
2022/11/17 05:30:38;;;;;;;7.10;4.43;;;10.00;99.90;;;;;;4927923;29;20478;-72
2022/11/17 05:33:05;;;;;;;8.57;4.50;;;10.10;99.90;;;;;;4928298;29;20493;-68
2022/11/17 05:35:31;;;;;;;5.50;4.53;;;10.10;99.90;;;;;;4928994;29;20454;-69
2022/11/17 05:37:58;;;;;;;5.50;4.43;;;10.00;99.90;;;;;;4927808;29;20813;-69
2022/11/17 05:40:25;;;;;;;5.77;4.43;;;10.00;99.90;;;;;;4927801;29;20965;-69
2022/11/17 05:42:52;;;;;;;5.37;4.13;;;10.00;99.90;;;;;;4927448;29;20958;-69
2022/11/17 05:45:18;;;;;;;5.87;4.30;;;10.00;99.90;;;;;;4927865;29;20493;-69
2022/11/17 05:47:46;;;;;;;4.97;4.47;;;10.10;99.90;;;;;;4927997;29;20842;-69
2022/11/17 05:50:13;;;;;;;4.70;3.80;;;10.10;99.90;;;;;;4928032;29;20502;-70
2022/11/17 05:52:40;;;;;;;4.90;3.77;;;10.10;99.90;;;;;;4927336;29;20462;-69
2022/11/17 05:55:07;;;;;;;5.30;4.10;;;10.10;99.90;;;;;;4928860;29;20485;-69
2022/11/17 05:57:34;;;;;;;5.87;5.00;;;10.00;99.90;;;;;;4933741;29;20466;-75
2022/11/17 06:00:03;;;;;;;9.60;4.10;;;10.00;99.90;;;;;;4933797;29;20504;-84
2022/11/17 06:02:36;;;;;;;9.10;4.90;;;10.00;99.90;;;;;;4932931;29;20486;-75
2022/11/17 06:05:05;;;;;;;8.33;4.77;;;10.00;99.90;;;;;;4933762;29;20446;-75
2022/11/17 06:07:32;;;;;;;6.33;4.23;;;10.00;99.90;;;;;;4933421;29;20458;-75
2022/11/17 06:09:59;;;;;;;7.20;4.90;;;10.00;99.90;;;;;;4934245;29;20462;-75
2022/11/17 06:12:26;;;;;;;7.60;5.13;;;10.00;99.90;;;;;;4933606;29;20483;-78
2022/11/17 06:14:52;;;;;;;8.00;3.80;;;10.00;99.90;;;;;;4933994;29;20462;-76
2022/11/17 06:17:22;;;;;;;8.70;4.80;;;10.00;99.90;;;;;;4934031;29;20469;-77
2022/11/17 06:19:53;;;;;;;6.03;4.43;;;10.00;99.90;;;;;;4934059;29;20469;-75
2022/11/17 06:22:22;;;;;;;6.30;4.47;;;10.00;99.90;;;;;;4933444;29;20501;-77
2022/11/17 06:24:48;;;;;;;4.40;3.90;;;10.00;99.90;;;;;;4933821;29;20834;-75
2022/11/17 06:27:17;;;;;;;3.97;3.67;;;10.00;99.90;;;;;;4933667;29;20454;-76
2022/11/17 06:29:45;;;;;;;7.70;3.90;;;10.10;99.90;;;;;;4933869;29;20872;-75
2022/11/17 06:32:13;;;;;;;4.20;3.70;;;10.10;99.90;;;;;;4933193;29;20525;-75
2022/11/17 06:34:40;;;;;;;6.83;4.07;;;10.10;99.90;;;;;;4933811;29;20470;-77
2022/11/17 06:37:07;;;;;;;4.43;4.00;;;10.10;99.90;;;;;;4933668;29;20493;-75
2022/11/17 06:39:35;;;;;;;6.13;3.53;;;10.10;99.90;;;;;;4933847;29;20458;-74
2022/11/17 06:42:02;;;;;;;5.57;3.80;;;10.10;99.90;;;;;;4932715;29;20504;-74
2022/11/17 06:44:29;;;;;;;4.47;3.43;;;10.10;99.90;;;;;;4933238;29;20459;-78
2022/11/17 06:46:56;;;;;;;4.20;3.60;;;10.10;99.90;;;;;;4931931;29;20462;-76
2022/11/17 06:49:22;;;;;;;3.97;3.53;;;10.10;99.90;;;;;;4931374;29;21009;-77
2022/11/17 06:51:49;;;;;;;6.43;3.77;;;10.10;99.90;;;;;;4930759;29;21018;-84
2022/11/17 06:54:16;;;;;;;4.43;3.50;;;10.10;99.90;;;;;;4932404;29;20815;-75
2022/11/17 06:56:44;;;;;;;3.00;2.70;;;10.10;99.90;;;;;;4932611;29;20470;-74
2022/11/17 06:59:11;;;;;;;4.57;2.87;;;10.20;99.90;;;;;;4933092;29;20465;-77
2022/11/17 07:01:38;;;;;;;2.77;2.17;;;10.20;99.90;;;;;;4932035;29;20502;-77
2022/11/17 07:04:05;;;;;;;2.57;2.37;;;10.10;99.90;;;;;;4932744;29;20458;-74
2022/11/17 07:06:35;;;;;;;6.10;2.80;;;10.10;99.90;;;;;;4931829;29;20481;-78
2022/11/17 07:09:02;;;;;;;5.23;2.80;;;10.20;99.90;;;;;;4932656;29;20966;-77
2022/11/17 07:11:29;;;;;;;4.27;2.20;;;10.30;99.90;;;;;;4932447;29;20482;-77
2022/11/17 07:13:57;;;;;;;2.87;1.93;;;10.30;99.90;;;;;;4931261;29;20947;-75
2022/11/17 07:16:24;;;;;;;3.07;2.37;;;10.30;99.90;;;;;;4932424;29;20462;-75
2022/11/17 07:18:52;;;;;;;2.23;2.03;;;10.40;99.90;;;;;;4932673;29;20465;-79
2022/11/17 07:21:21;;;;;;;2.83;1.90;;;10.40;99.90;;;;;;4932296;29;20501;-75
2022/11/17 07:23:47;;;;;;;2.90;2.10;;;10.40;99.90;;;;;;4929504;29;20989;-74
2022/11/17 07:26:14;;;;;;;4.60;2.10;;;10.50;99.90;;;;;;4929522;29;20962;-77
2022/11/17 07:28:41;;;;;;;4.77;1.97;;;10.50;99.90;;;;;;4929501;29;20946;-75
2022/11/17 07:31:09;;;;;;;3.40;1.60;;;10.60;99.90;;;;;;4929734;29;20478;-77
2022/11/17 07:33:36;;;;;;;3.30;2.00;;;10.70;99.90;;;;;;4929085;29;20839;-75
2022/11/17 07:36:04;;;;;;;2.60;1.70;;;10.70;99.90;;;;;;4929774;29;20469;-78
2022/11/17 07:38:32;;;;;;;2.80;1.67;;;10.80;99.90;;;;;;4929524;29;20458;-75
2022/11/17 07:41:00;;;;;;;1.93;1.70;;;10.90;99.90;;;;;;4929339;29;20932;-83
2022/11/17 07:43:27;;;;;;;2.00;1.60;;;10.90;99.90;;;;;;4929248;29;20458;-76
2022/11/17 07:45:53;;;;;;;4.00;1.93;;;11.00;99.90;;;;;;4929582;29;20468;-75
2022/11/17 07:48:22;;;;;;;3.70;1.57;;;11.00;99.90;;;;;;4929462;29;20521;-75
2022/11/17 07:50:49;;;;;;;6.30;3.23;;;11.00;99.90;;;;;;4929258;29;20483;-77
2022/11/17 07:53:15;;;;;;;3.87;1.90;;;11.10;99.90;;;;;;4928943;29;20462;-78
2022/11/17 07:55:42;;;;;;;2.73;1.73;;;11.20;99.90;;;;;;4929400;29;20466;-77
2022/11/17 07:58:09;;;;;;;2.80;2.00;;;11.20;99.90;;;;;;4929224;29;20493;-74
2022/11/17 08:00:36;;;;;;;2.40;1.63;;;11.20;99.90;;;;;;4929210;29;20506;-77
2022/11/17 08:03:03;;;;;;;6.13;1.93;;;11.30;99.90;;;;;;4928629;29;20465;-75
2022/11/17 08:05:34;;;;;;;2.70;1.70;;;11.30;99.90;;;;;;4929097;29;20529;-78
2022/11/17 08:08:01;;;;;;;3.03;1.80;;;11.30;99.90;;;;;;4929167;29;20446;-75
2022/11/17 08:10:30;;;;;;;3.67;1.60;;;11.40;99.90;;;;;;4928611;29;20967;-75
2022/11/17 08:12:57;;;;;;;2.70;1.77;;;11.40;99.90;;;;;;4928608;29;20506;-78
2022/11/17 08:15:24;;;;;;;1.83;1.60;;;11.40;99.90;;;;;;4928880;29;20466;-76
2022/11/17 08:17:53;;;;;;;3.83;1.90;;;11.40;99.90;;;;;;4929112;29;20513;-75
2022/11/17 08:20:21;;;;;;;2.40;1.30;;;11.50;99.90;;;;;;4928578;29;20994;-75
2022/11/17 08:22:49;;;;;;;4.23;1.60;;;11.50;99.90;;;;;;4928145;29;20465;-75
2022/11/17 08:25:16;;;;;;;3.63;1.37;;;11.50;99.90;;;;;;4928608;29;20461;-78
2022/11/17 08:27:43;;;;;;;1.70;1.23;;;11.50;99.90;;;;;;4928441;29;20469;-80
2022/11/17 08:30:11;;;;;;;2.03;1.23;;;11.50;99.90;;;;;;4928866;29;20963;-75
2022/11/17 08:32:37;;;;;;;3.47;1.30;;;11.60;99.90;;;;;;4928019;29;21026;-76
2022/11/17 08:35:06;;;;;;;4.93;1.50;;;11.70;99.90;;;;;;4928519;29;20977;-77
2022/11/17 08:37:32;;;;;;;3.97;1.23;;;11.70;99.90;;;;;;4928594;29;20474;-78
2022/11/17 08:40:00;;;;;;;5.37;1.70;;;11.70;99.90;;;;;;4928686;29;20462;-75
2022/11/17 08:42:27;;;;;;;2.10;1.20;;;11.70;99.90;;;;;;4927799;29;20494;-77
2022/11/17 08:44:54;;;;;;;3.87;1.40;;;11.80;99.90;;;;;;4928617;29;20462;-75
2022/11/17 08:47:21;;;;;;;3.10;1.40;;;11.80;99.90;;;;;;4928379;29;20865;-74
2022/11/17 08:49:48;;;;;;;1.93;1.43;;;11.80;99.90;;;;;;4928738;29;20470;-76
2022/11/17 08:52:14;;;;;;;2.37;1.20;;;11.80;99.90;;;;;;4927621;29;20482;-76
2022/11/17 08:54:41;;;;;;;3.30;1.20;;;11.80;99.90;;;;;;4928262;29;20465;-76
2022/11/17 08:57:09;;;;;;;2.20;1.23;;;11.80;99.90;;;;;;4927879;29;20839;-76
2022/11/17 08:59:36;;;;;;;3.17;1.20;;;11.80;99.90;;;;;;4928213;29;20493;-76
2022/11/17 09:02:03;;;;;;;1.50;1.20;;;11.80;99.90;;;;;;4927140;29;20509;-76
2022/11/17 09:04:32;;;;;;;3.27;1.43;;;11.90;99.90;;;;;;4928390;29;20463;-76
2022/11/17 09:06:59;;;;;;;1.93;1.10;;;11.90;99.90;;;;;;4928288;29;20647;-76
2022/11/17 09:09:26;;;;;;;3.63;1.70;;;11.90;99.90;;;;;;4927778;29;20458;-76
2022/11/17 09:11:53;;;;;;;4.87;1.57;;;11.90;99.90;;;;;;4927105;29;20474;-76
2022/11/17 09:14:21;;;;;;;3.53;2.03;;;12.00;99.90;;;;;;4927807;29;20571;-76
2022/11/17 09:16:48;;;;;;;3.13;1.50;;;12.00;99.90;;;;;;4928162;29;20458;-76
2022/11/17 09:19:15;;;;;;;4.00;1.17;;;12.00;99.90;;;;;;4928082;29;20469;-76
2022/11/17 09:21:42;;;;;;;3.37;2.07;;;12.10;99.90;;;;;;4927189;29;20498;-77
2022/11/17 09:24:09;;;;;;;3.27;1.40;;;12.10;99.90;;;;;;4927833;29;20556;-76
2022/11/17 09:26:39;;;;;;;3.23;1.53;;;12.10;99.90;;;;;;4928372;29;20509;-76
2022/11/17 09:29:06;;;;;;;3.40;1.27;;;12.20;99.90;;;;;;4928017;29;20545;-76
2022/11/17 09:31:35;;;;;;;4.30;1.23;;;12.20;99.90;;;;;;4930994;29;20489;-76
2022/11/17 09:34:02;;;;;;;2.80;1.00;;;12.20;99.90;;;;;;4931621;29;20470;-76
2022/11/17 09:36:29;;;;;;;2.80;1.17;;;12.20;99.90;;;;;;4931382;29;20466;-76
2022/11/17 09:38:56;;;;;;;2.37;1.10;;;12.30;99.90;;;;;;4931928;29;20469;-76
2022/11/17 09:41:26;;;;;;;1.23;1.13;;;12.30;99.90;;;;;;4931416;29;20502;-76
2022/11/17 09:44:01;;;;;;;1.50;1.00;;;12.30;99.90;;;;;;4931377;29;20458;-76
2022/11/17 09:46:41;;;;;;;2.30;1.10;;;12.30;99.90;;;;;;4931335;29;20458;-77
2022/11/17 09:49:13;;;;;;;1.90;0.90;;;12.30;99.90;;;;;;4930901;29;20465;-77
2022/11/17 09:51:43;;;;;;;2.80;0.90;;;12.30;99.90;;;;;;4931431;29;20833;-76
2022/11/17 09:54:18;;;;;;;3.00;1.40;;;12.20;99.90;;;;;;4931937;29;20469;-76
2022/11/17 09:56:46;;;;;;;2.17;0.87;;;12.20;99.90;;;;;;4931475;29;20446;-76
2022/11/17 09:59:17;;;;;;;1.27;0.93;;;12.20;99.90;;;;;;4931546;29;20461;-76
2022/11/17 10:01:46;;;;;;;5.17;1.30;;;12.20;99.90;;;;;;4930598;29;20505;-76
2022/11/17 10:04:15;;;;;;;3.60;1.10;;;12.20;99.90;;;;;;4931589;29;21367;-76
2022/11/17 10:06:45;;;;;;;1.33;0.97;;;12.30;99.90;;;;;;4931527;29;20490;-76
2022/11/17 10:09:22;;;;;;;1.83;1.10;;;12.30;99.90;;;;;;4931518;29;20473;-76
2022/11/17 10:11:49;;;;;;;1.80;1.03;;;12.30;99.90;;;;;;4930867;29;20478;-76
2022/11/17 10:14:17;;;;;;;2.40;1.10;;;12.30;99.90;;;;;;4931258;29;20462;-76
2022/11/17 10:16:54;;;;;;;3.03;1.30;;;12.30;99.90;;;;;;4931566;29;20488;-76
2022/11/17 10:19:24;;;;;;;1.40;0.90;;;12.30;99.90;;;;;;4931177;29;20943;-76
2022/11/17 10:21:54;;;;;;;2.93;1.33;;;12.30;99.90;;;;;;4930214;29;21069;-76
2022/11/17 10:24:35;;;;;;;3.03;1.20;;;12.30;99.90;;;;;;4930814;29;20462;-76
2022/11/17 10:27:03;;;;;;;1.77;1.30;;;12.30;99.90;;;;;;4931351;29;20465;-76
2022/11/17 10:29:30;;;;;;;4.07;1.40;;;12.30;99.90;;;;;;4930810;29;20474;-76
2022/11/17 10:32:08;;;;;;;3.53;1.10;;;12.40;99.90;;;;;;4930175;29;21040;-76
2022/11/17 10:34:38;;;;;;;5.23;1.30;;;12.40;99.90;;;;;;4930791;29;20461;-76
2022/11/17 10:37:21;;;;;;;4.03;1.50;;;12.50;99.90;;;;;;4930904;29;20450;-76
2022/11/17 10:39:48;;;;;;;2.17;1.17;;;12.60;99.90;;;;;;4931122;29;20450;-77
2022/11/17 10:42:22;;;;;;;5.00;1.60;;;12.70;99.90;;;;;;4929485;29;20506;-76
2022/11/17 10:44:52;;;;;;;6.83;1.40;;;12.70;99.90;;;;;;4931194;29;20450;-77
2022/11/17 10:47:29;;;;;;;2.80;1.00;;;12.70;99.90;;;;;;4930979;29;20469;-76
2022/11/17 10:50:21;;;;;;;2.77;1.07;;;12.80;99.90;;;;;;4930987;29;20468;-77
2022/11/17 10:52:48;;;;;;;6.93;1.50;;;12.80;99.90;;;;;;4930237;29;20458;-76
2022/11/17 10:55:24;;;;;;;5.57;1.23;;;12.80;99.90;;;;;;4930992;29;20466;-76
2022/11/17 10:57:54;;;;;;;3.47;1.80;;;12.90;99.90;;;;;;4930318;29;20457;-76
2022/11/17 11:00:34;;;;;;;3.07;1.50;;;12.90;99.90;;;;;;4930114;29;20993;-76
2022/11/17 11:03:17;;;;;;;6.20;1.47;;;12.90;99.90;;;;;;4929690;29;20598;-76
2022/11/17 11:05:58;;;;;;;5.10;1.40;;;13.00;99.90;;;;;;4930462;29;20466;-76
2022/11/17 11:08:29;;;;;;;2.57;1.30;;;13.00;99.90;;;;;;4930052;29;20469;-76
2022/11/17 11:10:58;;;;;;;6.63;1.47;;;13.00;99.90;;;;;;4930317;29;20549;-76
2022/11/17 11:13:31;;;;;;;4.33;1.40;;;13.00;99.90;;;;;;4929624;29;20462;-77
2022/11/17 11:15:58;;;;;;;7.13;1.40;;;13.00;99.90;;;;;;4930819;29;20455;-76
2022/11/17 11:18:29;;;;;;;6.20;1.83;;;13.10;99.90;;;;;;4930263;29;20462;-76
2022/11/17 11:21:06;;;;;;;2.67;1.30;;;13.10;99.90;;;;;;4928132;29;20553;-76
2022/11/17 11:23:44;;;;;;;2.50;1.10;;;13.10;99.90;;;;;;4929518;29;20505;-76
2022/11/17 11:26:30;;;;;;;4.53;1.40;;;13.10;99.90;;;;;;4929874;29;20446;-76
2022/11/17 11:29:07;;;;;;;3.00;1.20;;;13.10;99.90;;;;;;4930104;29;20469;-76
2022/11/17 11:31:49;;;;;;;3.37;1.07;;;13.20;99.90;;;;;;4929855;29;20485;-76
2022/11/17 11:34:35;;;;;;;5.80;1.30;;;13.20;99.90;;;;;;4929887;29;20964;-76
2022/11/17 11:37:07;;;;;;;4.30;1.30;;;13.20;99.90;;;;;;4930241;29;20466;-76
2022/11/17 11:39:43;;;;;;;2.50;1.50;;;13.30;99.90;;;;;;4929499;29;20454;-76
2022/11/17 11:42:29;;;;;;;3.17;1.70;;;13.40;99.90;;;;;;4929312;29;20504;-77
2022/11/17 11:45:34;;;;;;;4.37;1.33;;;13.40;99.90;;;;;;4929693;29;20465;-76
2022/11/17 11:48:13;;;;;;;5.77;2.43;;;13.40;99.90;;;;;;4929456;29;21412;-76
2022/11/17 11:50:51;;;;;;;3.97;1.73;;;13.50;99.90;;;;;;4929832;29;20485;-76
2022/11/17 11:53:30;;;;;;;6.27;1.67;;;13.50;99.90;;;;;;4927959;29;20524;-76
2022/11/17 11:56:08;;;;;;;4.33;1.30;;;13.50;99.90;;;;;;4929848;29;20453;-76
2022/11/17 11:58:41;;;;;;;3.27;1.37;;;13.60;99.90;;;;;;4929700;29;20454;-76
2022/11/17 12:01:10;;;;;;;5.50;1.50;;;13.60;99.90;;;;;;4929032;29;20502;-76
2022/11/17 12:03:46;;;;;;;9.50;2.10;;;13.60;99.90;;;;;;4928175;29;20826;-76
2022/11/17 12:09:48;;;;;;;2.40;1.97;;;13.60;99.90;;;;;;4929062;29;20441;-76
2022/11/17 12:12:17;;;;;;;6.30;1.63;;;13.60;99.90;;;;;;4925929;29;20470;-76
2022/11/17 12:15:22;;;;;;;4.73;1.80;;;13.50;99.90;;;;;;4926265;29;20978;-75
2022/11/17 12:17:59;;;;;;;3.17;1.20;;;13.50;99.90;;;;;;4914539;29;20471;-75
2022/11/17 12:20:55;;;;;;;2.83;1.13;;;13.50;99.90;;;;;;4928877;29;20469;-75
2022/11/17 12:23:49;;;;;;;1.40;0.90;;;13.60;99.90;;;;;;4927046;29;20506;-75
2022/11/17 12:26:25;;;;;;;5.03;1.37;;;13.70;99.90;;;;;;4929150;29;20513;-76
2022/11/17 12:29:21;;;;;;;5.67;1.10;;;13.80;99.90;;;;;;4929188;29;20462;-75
2022/11/17 12:31:52;;;;;;;3.43;0.97;;;13.80;99.90;;;;;;4927691;29;20486;-78
2022/11/17 12:34:23;;;;;;;5.20;1.63;;;14.00;99.90;;;;;;4929028;29;20466;-76
2022/11/17 12:37:25;;;;;;;2.30;1.23;;;14.10;99.90;;;;;;4928936;29;20477;-77
2022/11/17 12:39:56;;;;;;;6.43;2.00;;;14.20;99.90;;;;;;4928815;29;20464;-77
2022/11/17 12:42:23;;;;;;;1.90;1.00;;;14.30;99.90;;;;;;4927715;29;20498;-76
2022/11/17 12:44:56;;;;;;;7.47;1.57;;;14.20;99.90;;;;;;4928931;29;20474;-76
2022/11/17 12:47:24;;;;;;;3.20;1.30;;;14.20;99.90;;;;;;4928879;29;20451;-75
2022/11/17 12:50:27;;;;;;;4.70;1.30;;;14.20;99.90;;;;;;4928705;29;20473;-75
2022/11/17 12:53:20;;;;;;;4.03;1.27;;;14.10;99.90;;;;;;4928276;29;20469;-75
2022/11/17 12:56:02;;;;;;;4.30;1.23;;;14.00;99.90;;;;;;4928148;29;20781;-76
2022/11/17 12:58:36;;;;;;;3.70;1.40;;;14.00;99.90;;;;;;4928358;29;20916;-77
2022/11/17 13:01:13;;;;;;;5.70;1.47;;;14.00;99.90;;;;;;4928408;29;20497;-76
2022/11/17 13:03:46;;;;;;;3.73;1.30;;;14.10;99.90;;;;;;4927910;29;20486;-75
2022/11/17 13:06:14;;;;;;;3.73;1.60;;;14.10;99.90;;;;;;4928691;29;20565;-75
2022/11/17 13:08:54;;;;;;;2.80;1.30;;;14.30;99.90;;;;;;4928519;29;20716;-76
2022/11/17 13:11:22;;;;;;;4.00;1.30;;;14.40;99.90;;;;;;4928266;29;20486;-75
2022/11/17 13:13:49;;;;;;;3.60;1.40;;;14.40;99.90;;;;;;4927854;29;20818;-76
2022/11/17 13:16:19;;;;;;;5.80;1.40;;;14.40;99.90;;;;;;4928001;29;20469;-76
2022/11/17 13:18:47;;;;;;;5.40;1.50;;;14.40;99.90;;;;;;4928679;29;20457;-76
2022/11/17 13:21:29;;;;;;;2.43;1.37;;;14.40;99.90;;;;;;4926907;29;20482;-76
2022/11/17 13:23:57;;;;;;;2.83;1.40;;;14.30;99.90;;;;;;4926970;29;20525;-76
2022/11/17 13:26:27;;;;;;;4.60;1.60;;;14.40;99.90;;;;;;4927078;29;20462;-75
2022/11/17 13:29:05;;;;;;;5.60;1.70;;;14.30;99.90;;;;;;4927546;29;20469;-76
2022/11/17 13:31:32;;;;;;;8.93;2.10;;;14.30;99.90;;;;;;4927311;29;20481;-76
2022/11/17 13:34:04;;;;;;;3.33;1.40;;;14.40;99.90;;;;;;4926394;29;20466;-76
2022/11/17 13:36:31;;;;;;;4.60;1.73;;;14.40;99.90;;;;;;4927207;29;21123;-76
2022/11/17 13:39:00;;;;;;;6.23;1.80;;;14.40;99.90;;;;;;4927076;29;20469;-75
2022/11/17 13:41:38;;;;;;;4.60;1.63;;;14.40;99.90;;;;;;4927462;29;20482;-75
2022/11/17 13:44:07;;;;;;;8.20;1.90;;;14.40;99.90;;;;;;4926974;29;20560;-75
2022/11/17 13:46:35;;;;;;;5.37;1.83;;;14.40;99.90;;;;;;4927187;29;20513;-75
2022/11/17 13:49:01;;;;;;;6.83;1.83;;;14.30;99.90;;;;;;4926902;29;20462;-76
2022/11/17 13:51:33;;;;;;;3.70;1.40;;;14.30;99.90;;;;;;4927137;29;20489;-76
2022/11/17 13:54:05;;;;;;;7.27;1.70;;;14.20;99.90;;;;;;4926861;29;20445;-76
2022/11/17 13:56:36;;;;;;;7.83;1.80;;;14.20;99.90;;;;;;4927681;29;20442;-76
2022/11/17 13:59:06;;;;;;;9.20;1.80;;;14.10;99.90;;;;;;4926928;29;20513;-75
2022/11/17 14:01:32;;;;;;;3.90;1.50;;;14.00;99.90;;;;;;4926503;29;20564;-77
2022/11/17 14:04:17;;;;;;;4.50;1.37;;;14.00;99.90;;;;;;4927435;29;20510;-77
2022/11/17 14:06:59;;;;;;;5.40;2.37;;;14.00;99.90;;;;;;4926742;29;20462;-76
2022/11/17 14:09:28;;;;;;;8.00;2.23;;;14.00;99.90;;;;;;4927083;29;20458;-76
2022/11/17 14:11:57;;;;;;;5.77;1.90;;;14.00;99.90;;;;;;4927142;29;20494;-77
2022/11/17 14:14:32;;;;;;;6.57;1.57;;;14.00;99.90;;;;;;4926718;29;20958;-77
2022/11/17 14:17:11;;;;;;;6.57;1.63;;;14.00;99.90;;;;;;4930447;29;20450;-77
2022/11/17 14:19:38;;;;;;;7.93;1.90;;;14.00;99.90;;;;;;4933318;29;20457;-76
2022/11/17 14:22:22;;;;;;;14.53;1.87;;;14.00;99.90;;;;;;4930556;29;20489;-76
2022/11/17 14:24:50;;;;;;;7.10;1.87;;;14.00;99.90;;;;;;4931125;29;20495;-76
2022/11/17 14:27:40;;;;;;;4.10;1.53;;;13.90;99.90;;;;;;4930906;29;20477;-76
2022/11/17 14:30:13;;;;;;;6.70;1.93;;;13.90;99.90;;;;;;4931193;29;20446;-76
2022/11/17 14:32:39;;;;;;;14.80;2.83;;;13.80;99.90;;;;;;4930675;29;20430;-76
2022/11/17 14:35:07;;;;;;;6.03;2.00;;;13.90;99.90;;;;;;4931130;29;20458;-76
2022/11/17 14:37:37;;;;;;;7.37;2.10;;;13.80;99.90;;;;;;4930842;29;20468;-77
2022/11/17 14:40:06;;;;;;;5.53;1.73;;;13.80;99.90;;;;;;4930834;29;20462;-77
2022/11/17 14:42:33;;;;;;;11.40;2.57;;;13.80;99.90;;;;;;4929755;29;20501;-77
2022/11/17 14:45:01;;;;;;;5.43;2.60;;;13.80;99.90;;;;;;4930578;29;21254;-77
2022/11/17 14:47:28;;;;;;;8.20;1.90;;;13.80;99.90;;;;;;4930895;29;20466;-76
2022/11/17 14:49:55;;;;;;;8.20;2.47;;;13.80;99.90;;;;;;4930300;29;20465;-75
2022/11/17 14:52:22;;;;;;;10.17;2.47;;;13.70;99.90;;;;;;4930011;29;20490;-75
2022/11/17 14:54:49;;;;;;;7.87;2.33;;;13.70;99.90;;;;;;4930347;29;20454;-75
2022/11/17 14:57:18;;;;;;;4.53;2.10;;;13.70;99.90;;;;;;4930419;29;21163;-76
2022/11/17 14:59:45;;;;;;;5.93;1.97;;;13.70;99.90;;;;;;4930720;29;20943;-77
2022/11/17 15:02:13;;;;;;;15.00;2.50;;;13.70;99.90;;;;;;4929331;29;21010;-74
2022/11/17 15:04:42;;;;;;;4.40;1.93;;;13.60;99.90;;;;;;4930336;29;20466;-75
2022/11/17 15:07:09;;;;;;;5.37;1.93;;;13.60;99.90;;;;;;4930975;29;20462;-76
2022/11/17 15:09:36;;;;;;;10.83;2.90;;;13.60;99.90;;;;;;4930520;29;21252;-78
2022/11/17 15:12:02;;;;;;;9.13;2.90;;;13.60;99.90;;;;;;4929260;29;20478;-75
2022/11/17 15:14:29;;;;;;;11.07;2.40;;;13.60;99.90;;;;;;4930434;29;20458;-75
2022/11/17 15:16:56;;;;;;;9.90;2.63;;;13.60;99.90;;;;;;4930471;29;20465;-76
2022/11/17 15:19:24;;;;;;;8.90;2.73;;;13.50;99.90;;;;;;4930019;29;20462;-77
2022/11/17 15:21:51;;;;;;;12.93;2.77;;;13.60;99.90;;;;;;4929690;29;20482;-74
2022/11/17 15:24:18;;;;;;;7.90;2.53;;;13.60;99.90;;;;;;4930226;29;20498;-81
2022/11/17 15:26:45;;;;;;;15.30;4.50;;;13.60;99.90;;;;;;4929992;29;20995;-71
2022/11/17 15:29:13;;;;;;;15.57;3.17;;;13.60;99.90;;;;;;4929110;29;20888;-70
2022/11/17 15:31:40;;;;;;;8.97;3.63;;;13.60;99.90;;;;;;4929643;29;20474;-67
2022/11/17 15:34:09;;;;;;;14.20;2.83;;;13.60;99.90;;;;;;4930517;29;20485;-68
2022/11/17 15:36:37;;;;;;;6.87;2.40;;;13.70;99.90;;;;;;4929937;29;20458;-69
2022/11/17 15:39:04;;;;;;;7.13;2.50;;;13.70;99.90;;;;;;4929815;29;20458;-69
2022/11/17 15:41:31;;;;;;;10.40;2.73;;;13.70;99.90;;;;;;4929919;29;20482;-69
2022/11/17 15:43:58;;;;;;;7.77;2.60;;;13.70;99.90;;;;;;4928991;29;20501;-69
2022/11/17 15:46:25;;;;;;;8.57;3.00;;;13.70;99.90;;;;;;4929996;29;20469;-69
2022/11/17 15:48:51;;;;;;;15.07;3.30;;;13.60;99.90;;;;;;4929797;29;20975;-69
2022/11/17 15:51:21;;;;;;;8.53;3.20;;;13.60;99.90;;;;;;4929569;29;20482;-79
2022/11/17 15:53:50;;;;;;;7.10;2.90;;;13.60;99.90;;;;;;4928866;29;20472;-76
2022/11/17 15:56:19;;;;;;;7.60;3.33;;;13.60;99.90;;;;;;4930102;29;20459;-77
2022/11/17 15:58:47;;;;;;;9.10;4.10;;;13.60;99.90;;;;;;4929408;29;20570;-77
2022/11/17 16:01:15;;;;;;;14.47;4.10;;;13.60;99.90;;;;;;4929164;29;20512;-77
2022/11/17 16:03:47;;;;;;;9.30;3.77;;;13.60;99.90;;;;;;4927181;29;20506;-77
2022/11/17 16:06:14;;;;;;;8.33;3.80;;;13.60;99.90;;;;;;4929440;29;20443;-77
2022/11/17 16:08:41;;;;;;;11.47;3.50;;;13.60;99.90;;;;;;4929831;29;20462;-78
2022/11/17 16:11:10;;;;;;;16.67;5.23;;;13.60;99.90;;;;;;4929510;29;20487;-79
2022/11/17 16:13:36;;;;;;;16.20;5.23;;;13.50;99.90;;;;;;4928978;29;20466;-75
2022/11/17 16:16:04;;;;;;;18.60;6.00;;;13.50;99.90;;;;;;4929104;29;21061;-73
2022/11/17 16:18:36;;;;;;;17.40;7.70;;;13.50;99.90;;;;;;4929648;29;20458;-76
2022/11/17 16:21:04;;;;;;;16.33;7.67;;;13.40;99.90;;;;;;4929131;29;20482;-77
2022/11/17 16:23:36;;;;;;;19.30;6.60;;;13.40;99.90;;;;;;4928434;29;20505;-77
2022/11/17 16:26:03;;;;;;;15.10;5.90;;;13.30;99.90;;;;;;4929218;29;20443;-76
2022/11/17 16:28:31;;;;;;;12.03;5.50;;;13.30;99.90;;;;;;4929138;29;20466;-77
2022/11/17 16:30:58;;;;;;;21.97;6.23;;;13.30;99.90;;;;;;4928837;29;20478;-77
2022/11/17 16:33:25;;;;;;;19.47;7.27;;;13.20;99.90;;;;;;4928255;29;20553;-77
2022/11/17 16:35:52;;;;;;;16.57;6.50;;;13.20;99.90;;;;;;4928913;29;20458;-75
2022/11/17 16:38:18;;;;;;;14.63;7.90;;;13.20;99.90;;;;;;4928960;29;20464;-76
2022/11/17 16:40:45;;;;;;;17.93;6.10;;;13.20;99.90;;;;;;4928715;29;20561;-76
2022/11/17 16:43:13;;;;;;;12.40;5.17;;;13.20;99.90;;;;;;4927691;29;20509;-76
2022/11/17 16:45:44;;;;;;;8.83;4.20;;;13.20;99.90;;;;;;4928295;29;20469;-76
2022/11/17 16:48:11;;;;;;;16.70;6.00;;;13.10;99.90;;;;;;4928569;29;20523;-76
2022/11/17 16:50:38;;;;;;;10.90;5.07;;;13.10;99.90;;;;;;4928482;29;20488;-76
2022/11/17 16:53:05;;;;;;;11.50;4.37;;;13.10;99.90;;;;;;4928114;29;20542;-76
2022/11/17 16:55:34;;;;;;;16.17;4.53;;;13.10;99.90;;;;;;4928596;29;20454;-76
2022/11/17 16:58:01;;;;;;;8.20;4.57;;;13.00;99.90;;;;;;4928338;29;20959;-76
2022/11/17 17:00:29;;;;;;;15.67;7.40;;;13.00;99.90;;;;;;4927936;29;20466;-76
2022/11/17 17:02:57;;;;;;;17.73;9.30;;;13.10;99.90;;;;;;4927939;29;20458;-76
2022/11/17 17:05:25;;;;;;;20.67;8.93;;;13.00;99.90;;;;;;4928363;29;20462;-76
2022/11/17 17:07:51;;;;;;;15.83;10.50;;;13.00;99.90;;;;;;4928456;29;20553;-76
2022/11/17 17:10:18;;;;;;;20.73;11.10;;;12.90;99.90;;;;;;4928181;29;20462;-76
2022/11/17 17:12:45;;;;;;;20.30;10.23;;;12.90;99.90;;;;;;4927423;29;20462;-76
2022/11/17 17:15:12;;;;;;;26.47;9.90;;;12.90;99.90;;;;;;4928563;29;20468;-75
2022/11/17 17:17:39;;;;;;;18.53;8.73;;;12.90;99.90;;;;;;4927992;29;20997;-76
2022/11/17 17:20:09;;;;;;;32.47;9.17;;;12.90;99.90;;;;;;4928691;29;20473;-76
2022/11/17 17:22:35;;;;;;;19.60;8.70;;;12.80;99.90;;;;;;4926264;29;21006;-76
2022/11/17 17:25:03;;;;;;;16.80;8.23;;;12.80;99.90;;;;;;4928245;29;20498;-75
2022/11/17 17:27:30;;;;;;;15.90;9.53;;;12.80;99.90;;;;;;4927984;29;20471;-75
2022/11/17 17:29:57;;;;;;;28.27;13.23;;;12.80;99.90;;;;;;4928303;29;20841;-76
2022/11/17 17:32:23;;;;;;;35.80;17.90;;;12.80;99.90;;;;;;4927725;29;20489;-76
2022/11/17 17:34:51;;;;;;;52.90;26.63;;;12.80;99.90;;;;;;4928315;29;20487;-76
2022/11/17 17:37:19;;;;;;;21.27;11.37;;;12.80;99.90;;;;;;4928299;29;20466;-76
2022/11/17 17:39:46;;;;;;;17.30;7.87;;;12.70;99.90;;;;;;4928218;29;20545;-76
2022/11/17 17:42:13;;;;;;;8.60;5.63;;;12.70;99.90;;;;;;4927438;29;20482;-77
2022/11/17 17:44:40;;;;;;;16.90;6.13;;;12.70;99.90;;;;;;4928513;29;20498;-74
2022/11/17 17:47:07;;;;;;;14.00;4.97;;;12.70;99.90;;;;;;4928221;29;20469;-76
2022/11/17 17:49:33;;;;;;;10.77;4.30;;;12.70;99.90;;;;;;4927863;29;20463;-75
2022/11/17 17:52:00;;;;;;;12.43;4.70;;;12.70;99.90;;;;;;4929718;29;20489;-75
2022/11/17 17:54:28;;;;;;;11.93;5.47;;;12.70;99.90;;;;;;4931291;29;20974;-76
2022/11/17 17:56:56;;;;;;;10.23;5.23;;;12.60;99.90;;;;;;4931562;29;20477;-76
2022/11/17 17:59:23;;;;;;;11.50;5.67;;;12.60;99.90;;;;;;4932500;29;20498;-76
2022/11/17 18:01:52;;;;;;;16.43;7.13;;;12.60;99.90;;;;;;4932091;29;21207;-76
2022/11/17 18:04:19;;;;;;;13.53;6.10;;;12.60;99.90;;;;;;4933187;29;20502;-76
2022/11/17 18:06:46;;;;;;;10.30;5.87;;;12.50;99.90;;;;;;4932495;29;20466;-77
2022/11/17 18:09:17;;;;;;;24.30;14.80;;;12.50;99.90;;;;;;4932268;29;20458;-77